OMRK/RKT METAR and TAF weather

Enter ICAO airport designator
Station Type Date Time Source
OMRK METAR 2019/09/20 20:00 UTC NOAA

OMRK 202000Z 19004KT 8000 NSC 29/26 Q1005 A2970


Station Type Date Time Source
OMRK Decoded METAR 2019/09/20 20:00 UTC NOAA

Ras Al Khaimah International Airport, United Arab Emirates (OMRK) 25-37N 055-56E 31M
Sep 20, 2019 - 04:00 PM EDT / 2019.09.20 2000 UTC
Wind: from the S (190 degrees) at 5 MPH (4 KT):0
Visibility: 4 mile(s):0
Temperature: 84 F (29 C)
Dew Point: 78 F (26 C)
Relative Humidity: 83%
Pressure (altimeter): 29.7 in. Hg (1005 hPa)
ob: OMRK 202000Z 19004KT 8000 NSC 29/26 Q1005 A2970
cycle: 20

Station Type Date Time Source
OMRK TAF 2019/09/20 18:01 UTC NOAA

TAF OMRK 201655Z 2018/2200 VRB02KT 7000 NSC PROB40 2018/2105 4000 HZ PROB30 2021/2104 1500 BR BKN005
BECMG 2107/2109 33010KT
BECMG 2115/2117 VRB02KT PROB30 2122/2200 4000 HZ

Example: see airport list